Time;durP1;ratioP1;P1;durP2;ratioP2;P2;SDS_P1;SDS_P2;PMS_P1;PMS_P2;Temp;Humidity;BMP_temperature;BMP_pressure;BME280_temperature;BME280_humidity;BME280_pressure;Samples;Min_cycle;Max_cycle;Signal;HPM_P1;HPM_P2
2022/02/23 00:01:29;;;;;;;4.63;1.90;;;5.70;99.90;;;;;;4991794;28;21082;-58
2022/02/23 00:03:55;;;;;;;3.80;2.20;;;5.70;99.90;;;;;;4988432;28;20420;-59
2022/02/23 00:06:21;;;;;;;12.77;2.17;;;5.70;99.90;;;;;;4992256;28;20416;-58
2022/02/23 00:08:47;;;;;;;6.13;2.20;;;5.70;99.90;;;;;;4999344;28;20320;-58
2022/02/23 00:11:12;;;;;;;4.17;2.30;;;5.70;99.90;;;;;;4989825;28;20247;-57
2022/02/23 00:13:38;;;;;;;7.40;2.93;;;5.80;99.90;;;;;;4995954;28;20177;-58
2022/02/23 00:16:05;;;;;;;3.80;1.97;;;5.70;99.90;;;;;;4981705;28;20174;-58
2022/02/23 00:18:31;;;;;;;5.67;2.40;;;5.80;99.90;;;;;;4987293;28;20296;-59
2022/02/23 00:20:57;;;;;;;4.33;1.77;;;5.80;99.90;;;;;;4990470;28;20839;-59
2022/02/23 00:23:23;;;;;;;5.37;1.90;;;5.80;99.90;;;;;;4988868;28;20185;-59
2022/02/23 00:25:49;;;;;;;14.27;2.23;;;5.80;99.90;;;;;;4987560;28;20216;-58
2022/02/23 00:28:15;;;;;;;5.17;1.40;;;5.80;99.90;;;;;;4972273;28;20730;-58
2022/02/23 00:30:41;;;;;;;4.10;1.43;;;5.80;99.90;;;;;;4991388;28;20948;-58
2022/02/23 00:33:07;;;;;;;2.10;1.37;;;5.80;99.90;;;;;;5002614;28;20503;-60
2022/02/23 00:35:33;;;;;;;3.50;1.47;;;5.80;99.90;;;;;;4994609;28;20824;-58
2022/02/23 00:37:59;;;;;;;2.20;1.33;;;5.80;99.90;;;;;;4999741;28;20827;-57
2022/02/23 00:40:25;;;;;;;2.57;1.50;;;5.80;99.90;;;;;;4997368;28;20418;-58
2022/02/23 00:42:55;;;;;;;1.83;1.23;;;5.90;99.90;;;;;;4983940;28;20573;-58
2022/02/23 00:45:21;;;;;;;3.17;1.23;;;5.90;99.90;;;;;;4978324;28;20169;-58
2022/02/23 00:47:46;;;;;;;3.63;1.50;;;5.90;99.90;;;;;;5003314;28;21027;-58
2022/02/23 00:50:12;;;;;;;2.47;1.50;;;5.90;99.90;;;;;;4995823;28;20237;-58
2022/02/23 00:52:37;;;;;;;1.63;1.37;;;5.90;99.90;;;;;;4999267;28;20205;-59
2022/02/23 00:55:04;;;;;;;1.33;1.23;;;5.90;99.90;;;;;;4994496;28;20290;-63
2022/02/23 00:57:30;;;;;;;3.50;1.60;;;5.90;99.90;;;;;;5012639;28;20200;-58
2022/02/23 00:59:57;;;;;;;3.83;1.37;;;5.90;99.90;;;;;;4999585;28;20617;-59
2022/02/23 01:02:24;;;;;;;2.70;1.30;;;5.90;99.90;;;;;;5000232;28;20178;-58
2022/02/23 01:04:49;;;;;;;2.40;0.93;;;5.90;99.90;;;;;;5000390;28;20507;-57
2022/02/23 01:07:15;;;;;;;2.10;1.37;;;5.90;99.90;;;;;;4991088;28;21214;-58
2022/02/23 01:09:42;;;;;;;2.97;1.00;;;6.00;99.90;;;;;;4979377;28;20205;-57
2022/02/23 01:12:07;;;;;;;2.63;1.57;;;6.00;99.90;;;;;;4971132;28;20173;-58
2022/02/23 01:14:33;;;;;;;1.97;1.20;;;5.90;99.90;;;;;;4970481;28;20409;-59
2022/02/23 01:16:59;;;;;;;2.53;1.13;;;6.00;99.90;;;;;;4987275;28;20676;-58
2022/02/23 01:19:25;;;;;;;1.63;0.97;;;6.00;99.90;;;;;;4990661;28;20189;-57
2022/02/23 01:21:51;;;;;;;2.63;1.50;;;6.00;99.90;;;;;;4997653;28;20431;-58
2022/02/23 01:24:17;;;;;;;5.43;1.23;;;6.00;99.90;;;;;;4988594;28;20293;-58
2022/02/23 01:26:43;;;;;;;1.53;1.00;;;6.00;99.90;;;;;;4989826;28;20861;-60
2022/02/23 01:29:09;;;;;;;1.30;1.20;;;6.00;99.90;;;;;;4987351;28;20197;-59
2022/02/23 01:31:34;;;;;;;2.17;1.20;;;6.00;99.90;;;;;;4989233;28;20169;-58
2022/02/23 01:34:00;;;;;;;0.80;0.80;;;6.00;99.90;;;;;;4989631;28;20181;-58
2022/02/23 01:36:26;;;;;;;1.33;1.10;;;6.00;99.90;;;;;;4983192;28;20174;-59
2022/02/23 01:38:51;;;;;;;2.00;1.10;;;6.00;99.90;;;;;;4988981;28;20196;-56
2022/02/23 01:41:19;;;;;;;1.00;1.00;;;6.00;99.90;;;;;;4985584;28;20184;-60
2022/02/23 01:43:49;;;;;;;2.20;1.00;;;6.00;99.90;;;;;;4982071;28;20212;-58
2022/02/23 01:46:17;;;;;;;1.10;1.00;;;6.00;99.90;;;;;;4980452;28;20474;-59
2022/02/23 01:48:43;;;;;;;1.83;1.10;;;6.00;99.90;;;;;;5002387;28;20542;-58
2022/02/23 01:51:08;;;;;;;2.80;0.97;;;6.00;99.90;;;;;;5008457;28;20741;-58
2022/02/23 01:53:34;;;;;;;1.37;0.73;;;6.00;99.90;;;;;;5004955;28;20170;-57
2022/02/23 01:56:00;;;;;;;0.90;0.90;;;6.00;99.90;;;;;;4984734;28;20271;-58
2022/02/23 01:58:26;;;;;;;3.57;1.20;;;6.00;99.90;;;;;;4989688;28;20867;-59
2022/02/23 02:00:52;;;;;;;1.80;1.00;;;6.00;99.90;;;;;;4991811;28;20538;-58
2022/02/23 02:03:18;;;;;;;2.23;1.00;;;6.00;99.90;;;;;;4992618;28;20189;-59
2022/02/23 02:05:43;;;;;;;1.80;0.87;;;6.00;99.90;;;;;;4988836;28;20176;-58
2022/02/23 02:08:09;;;;;;;0.93;0.93;;;6.00;99.90;;;;;;4984924;28;20471;-59
2022/02/23 02:10:35;;;;;;;1.00;1.00;;;6.00;99.90;;;;;;4982807;28;20537;-57
2022/02/23 02:13:01;;;;;;;5.17;1.20;;;6.00;99.90;;;;;;4987981;28;20451;-58
2022/02/23 02:15:27;;;;;;;0.90;0.90;;;6.00;99.90;;;;;;4986679;28;20499;-58
2022/02/23 02:17:52;;;;;;;1.03;0.97;;;6.00;99.90;;;;;;5013645;22;20604;-61
2022/02/23 02:20:18;;;;;;;0.80;0.80;;;6.00;99.90;;;;;;5005492;28;20176;-61
2022/02/23 02:22:44;;;;;;;1.00;0.90;;;5.90;99.90;;;;;;5008344;28;20275;-61
2022/02/23 02:25:09;;;;;;;0.80;0.80;;;5.90;99.90;;;;;;5009373;28;20263;-61
2022/02/23 02:27:35;;;;;;;0.80;0.80;;;5.90;99.90;;;;;;4997536;28;20219;-62
2022/02/23 02:30:01;;;;;;;1.43;1.17;;;5.90;99.90;;;;;;4999636;28;20845;-61
2022/02/23 02:32:27;;;;;;;1.33;1.23;;;5.90;99.90;;;;;;4984884;28;20176;-61
2022/02/23 02:34:53;;;;;;;1.43;0.93;;;5.90;99.90;;;;;;5005661;28;20187;-61
2022/02/23 02:37:19;;;;;;;3.43;1.10;;;5.90;99.90;;;;;;5018061;28;20291;-61
2022/02/23 02:39:45;;;;;;;0.87;0.87;;;5.90;99.90;;;;;;5030479;28;20456;-61
2022/02/23 02:42:11;;;;;;;0.97;0.93;;;5.90;99.90;;;;;;5005621;28;20182;-61
2022/02/23 02:44:37;;;;;;;0.87;0.87;;;5.90;99.90;;;;;;5004003;28;21190;-61
2022/02/23 02:47:03;;;;;;;0.80;0.80;;;5.90;99.90;;;;;;5007032;28;20566;-61
2022/02/23 02:49:29;;;;;;;1.63;1.30;;;5.80;99.90;;;;;;5000850;28;20205;-61
2022/02/23 02:51:55;;;;;;;3.60;0.90;;;5.90;99.90;;;;;;5001287;28;20639;-61
2022/02/23 02:54:21;;;;;;;0.80;0.80;;;5.80;99.90;;;;;;5007392;28;20991;-61
2022/02/23 02:56:49;;;;;;;1.07;0.97;;;5.80;99.90;;;;;;5005662;28;20563;-61
2022/02/23 02:59:14;;;;;;;0.90;0.90;;;5.80;99.90;;;;;;5012280;28;20203;-61
2022/02/23 03:01:40;;;;;;;0.70;0.70;;;5.80;99.90;;;;;;5007417;28;20438;-60
2022/02/23 03:04:07;;;;;;;2.83;0.90;;;5.80;99.90;;;;;;5007066;28;20868;-60
2022/02/23 03:06:34;;;;;;;0.90;0.80;;;5.80;99.90;;;;;;5011973;28;20438;-61
2022/02/23 03:09:00;;;;;;;1.13;0.90;;;5.80;99.90;;;;;;4999369;28;20464;-62
2022/02/23 03:11:26;;;;;;;0.90;0.90;;;5.80;99.90;;;;;;5011790;28;20443;-61
2022/02/23 03:13:52;;;;;;;2.10;1.00;;;5.80;99.90;;;;;;5009080;28;20422;-61
2022/02/23 03:16:18;;;;;;;1.07;0.97;;;5.80;99.90;;;;;;5000752;28;20432;-61
2022/02/23 03:18:45;;;;;;;1.33;1.00;;;5.80;99.90;;;;;;5007090;28;20888;-61
2022/02/23 03:21:10;;;;;;;1.67;1.30;;;5.80;99.90;;;;;;5018506;28;20846;-62
2022/02/23 03:23:37;;;;;;;1.00;1.00;;;5.80;99.90;;;;;;5013253;28;20439;-60
2022/02/23 03:26:04;;;;;;;1.23;0.90;;;5.80;99.90;;;;;;5011304;28;20204;-61
2022/02/23 03:28:31;;;;;;;0.97;0.97;;;5.80;99.90;;;;;;5000941;28;20459;-61
2022/02/23 03:30:58;;;;;;;1.00;1.00;;;5.80;99.90;;;;;;4996660;28;20439;-61
2022/02/23 03:33:24;;;;;;;0.80;0.80;;;5.80;99.90;;;;;;5003132;28;20416;-61
2022/02/23 03:35:49;;;;;;;1.83;0.90;;;5.70;99.90;;;;;;4992915;28;20979;-61
2022/02/23 03:38:15;;;;;;;0.90;0.90;;;5.70;99.90;;;;;;5003285;28;20397;-61
2022/02/23 03:40:42;;;;;;;1.00;1.00;;;5.70;99.90;;;;;;5006017;28;20173;-61
2022/02/23 03:43:09;;;;;;;1.37;1.27;;;5.80;99.90;;;;;;5009015;28;20421;-60
2022/02/23 03:45:35;;;;;;;1.90;1.00;;;5.80;99.90;;;;;;5010416;28;20462;-61
2022/02/23 03:48:01;;;;;;;1.10;1.10;;;5.70;99.90;;;;;;4996209;28;21019;-61
2022/02/23 03:50:27;;;;;;;1.33;1.13;;;5.70;99.90;;;;;;4997070;28;20493;-61
2022/02/23 03:52:53;;;;;;;1.23;1.13;;;5.70;99.90;;;;;;5011636;28;20423;-61
2022/02/23 03:55:20;;;;;;;2.03;1.00;;;5.70;99.90;;;;;;5007725;28;20452;-60
2022/02/23 03:57:46;;;;;;;1.30;1.20;;;5.80;99.90;;;;;;5001595;28;20807;-61
2022/02/23 04:00:14;;;;;;;2.63;1.20;;;5.70;99.90;;;;;;4996917;28;20185;-61
2022/02/23 04:02:41;;;;;;;0.90;0.80;;;5.80;99.90;;;;;;5001739;28;20180;-60
2022/02/23 04:05:07;;;;;;;1.20;0.83;;;5.80;99.90;;;;;;5005736;28;20488;-61
2022/02/23 04:07:34;;;;;;;3.40;1.40;;;5.80;99.90;;;;;;5001042;28;20464;-61
2022/02/23 04:09:59;;;;;;;2.20;1.17;;;5.80;99.90;;;;;;4993071;28;20530;-61
2022/02/23 04:12:25;;;;;;;1.37;1.20;;;5.80;99.90;;;;;;5010789;28;20516;-60
2022/02/23 04:14:51;;;;;;;3.77;1.30;;;5.80;99.90;;;;;;5005940;28;20226;-61
2022/02/23 04:17:16;;;;;;;1.20;1.10;;;5.80;99.90;;;;;;5005901;28;20526;-60
2022/02/23 04:19:42;;;;;;;2.30;1.13;;;5.80;99.90;;;;;;5000556;28;20199;-61
2022/02/23 04:22:09;;;;;;;1.83;1.30;;;5.80;99.90;;;;;;5005328;28;20180;-61
2022/02/23 04:24:34;;;;;;;1.70;1.33;;;5.80;99.90;;;;;;5001774;28;20499;-62
2022/02/23 04:27:00;;;;;;;1.13;1.03;;;5.80;99.90;;;;;;5004208;28;20519;-60
2022/02/23 04:29:30;;;;;;;1.23;0.90;;;5.80;99.90;;;;;;5005551;28;20589;-60
2022/02/23 04:31:56;;;;;;;1.10;1.00;;;5.80;99.90;;;;;;4996757;28;20203;-60
2022/02/23 04:34:23;;;;;;;2.40;1.40;;;5.80;99.90;;;;;;4994711;28;20442;-60
2022/02/23 04:36:49;;;;;;;0.90;0.90;;;5.80;99.90;;;;;;5000244;28;20416;-61
2022/02/23 04:39:15;;;;;;;2.27;1.43;;;5.80;99.90;;;;;;5016981;28;20454;-61
2022/02/23 04:41:41;;;;;;;2.50;1.40;;;5.80;99.90;;;;;;5007599;28;20431;-62
2022/02/23 04:44:07;;;;;;;1.50;1.10;;;5.80;99.90;;;;;;5003150;28;20438;-62
2022/02/23 04:46:33;;;;;;;1.30;1.20;;;5.90;99.90;;;;;;4998421;28;21035;-62
2022/02/23 04:48:59;;;;;;;2.07;1.77;;;5.90;99.90;;;;;;4994461;28;20467;-62
2022/02/23 04:51:28;;;;;;;3.97;2.37;;;5.90;99.90;;;;;;5009763;28;20408;-62
2022/02/23 04:53:53;;;;;;;2.87;1.70;;;5.90;99.90;;;;;;5003345;28;20173;-63
2022/02/23 04:56:19;;;;;;;2.20;1.60;;;5.90;99.90;;;;;;4993962;28;20497;-61
2022/02/23 04:58:45;;;;;;;1.40;1.30;;;5.90;99.90;;;;;;5000956;28;20220;-60
2022/02/23 05:01:11;;;;;;;1.83;1.50;;;5.90;99.90;;;;;;4998340;28;20472;-61
2022/02/23 05:03:37;;;;;;;2.50;1.27;;;5.80;99.90;;;;;;4995381;28;20184;-62
2022/02/23 05:06:03;;;;;;;1.70;1.37;;;5.80;99.90;;;;;;4994124;28;20447;-60
2022/02/23 05:08:29;;;;;;;2.00;1.50;;;5.80;99.90;;;;;;4993654;28;20695;-60
2022/02/23 05:10:58;;;;;;;2.10;1.30;;;5.80;99.90;;;;;;4997799;28;20583;-60
2022/02/23 05:13:25;;;;;;;1.40;1.30;;;5.80;99.90;;;;;;4999850;28;21068;-60
2022/02/23 05:15:56;;;;;;;1.30;1.20;;;5.80;99.90;;;;;;5001640;28;20541;-61
2022/02/23 05:18:23;;;;;;;1.50;1.40;;;5.70;99.90;;;;;;4996278;28;20468;-61
2022/02/23 05:20:48;;;;;;;1.20;1.20;;;5.80;99.90;;;;;;4988747;28;20439;-61
2022/02/23 05:23:15;;;;;;;1.93;1.13;;;5.80;99.90;;;;;;4998353;28;20436;-61
2022/02/23 05:25:41;;;;;;;1.10;1.10;;;5.80;99.90;;;;;;5000891;28;20680;-61
2022/02/23 05:28:06;;;;;;;3.20;2.17;;;5.80;99.90;;;;;;4999425;28;20989;-62
2022/02/23 05:30:32;;;;;;;3.10;2.23;;;5.80;99.90;;;;;;5002640;28;20446;-61
2022/02/23 05:32:58;;;;;;;1.73;1.60;;;5.80;99.90;;;;;;4997881;28;20823;-60
2022/02/23 05:35:23;;;;;;;1.40;1.30;;;5.70;99.90;;;;;;4995374;28;20568;-61
2022/02/23 05:37:49;;;;;;;2.20;1.30;;;5.70;99.90;;;;;;5001171;28;20236;-62
2022/02/23 05:40:16;;;;;;;1.93;1.50;;;5.70;99.90;;;;;;4994296;28;20215;-60
2022/02/23 05:42:41;;;;;;;1.33;1.20;;;5.70;99.90;;;;;;5006480;28;20437;-61
2022/02/23 05:45:07;;;;;;;1.67;1.30;;;5.70;99.90;;;;;;4997143;28;20439;-60
2022/02/23 05:47:34;;;;;;;2.30;1.60;;;5.80;99.90;;;;;;4989208;28;20205;-61
2022/02/23 05:50:00;;;;;;;3.40;1.57;;;5.80;99.90;;;;;;4998963;28;20463;-61
2022/02/23 05:52:25;;;;;;;2.50;2.30;;;5.80;99.90;;;;;;4998061;28;20440;-62
2022/02/23 05:54:51;;;;;;;2.83;2.40;;;5.80;99.90;;;;;;5002736;28;20551;-62
2022/02/23 05:57:18;;;;;;;2.17;1.97;;;5.80;99.90;;;;;;4997960;28;20199;-61
2022/02/23 05:59:44;;;;;;;1.83;1.30;;;5.70;99.90;;;;;;5006747;28;20567;-61
2022/02/23 06:02:10;;;;;;;11.60;1.40;;;5.70;99.90;;;;;;4997757;28;20435;-58
2022/02/23 06:04:36;;;;;;;1.23;1.03;;;5.70;99.90;;;;;;4993975;28;20657;-61
2022/02/23 06:07:03;;;;;;;1.30;1.20;;;5.70;99.90;;;;;;5002463;28;20176;-61
2022/02/23 06:09:29;;;;;;;2.33;1.10;;;5.60;99.90;;;;;;5006812;28;20538;-61
2022/02/23 06:11:54;;;;;;;2.00;1.37;;;5.60;99.90;;;;;;5009604;28;20494;-61
2022/02/23 06:14:20;;;;;;;1.60;1.50;;;5.60;99.90;;;;;;4994070;28;20182;-60
2022/02/23 06:16:46;;;;;;;1.83;1.30;;;5.60;99.90;;;;;;4992117;28;20604;-61
2022/02/23 06:19:11;;;;;;;2.80;1.67;;;5.60;99.90;;;;;;4990243;28;20244;-61
2022/02/23 06:21:37;;;;;;;4.80;2.40;;;5.50;99.90;;;;;;4998973;28;20180;-60
2022/02/23 06:24:03;;;;;;;2.97;2.30;;;5.60;99.90;;;;;;5011656;28;20219;-61
2022/02/23 06:26:29;;;;;;;2.33;2.10;;;5.60;99.90;;;;;;5010481;28;20658;-61
2022/02/23 06:28:54;;;;;;;4.90;1.90;;;5.60;99.90;;;;;;4996881;28;20224;-59
2022/02/23 06:31:20;;;;;;;2.93;2.13;;;5.50;99.90;;;;;;4990564;28;20181;-61
2022/02/23 06:33:47;;;;;;;2.67;2.10;;;5.50;99.90;;;;;;5001854;28;20547;-60
2022/02/23 06:36:13;;;;;;;3.77;2.07;;;5.50;99.90;;;;;;5002497;28;20180;-61
2022/02/23 06:38:41;;;;;;;4.20;2.60;;;5.50;99.90;;;;;;5002603;28;20456;-60
2022/02/23 06:41:18;;;;;;;8.03;2.80;;;5.50;99.90;;;;;;5007305;28;20438;-61
2022/02/23 06:43:46;;;;;;;5.73;2.80;;;5.50;99.90;;;;;;5012379;28;20552;-61
2022/02/23 06:46:12;;;;;;;3.90;2.90;;;5.50;99.90;;;;;;5013204;28;20424;-60
2022/02/23 06:48:40;;;;;;;3.13;2.83;;;5.50;99.90;;;;;;4997992;28;21149;-61
2022/02/23 06:51:06;;;;;;;4.07;3.20;;;5.60;99.90;;;;;;5002613;28;20939;-60
2022/02/23 06:53:32;;;;;;;7.40;4.13;;;5.50;99.90;;;;;;5014695;28;20746;-59
2022/02/23 06:55:58;;;;;;;4.27;2.13;;;5.60;99.90;;;;;;4997123;28;20427;-61
2022/02/23 06:58:24;;;;;;;2.40;1.60;;;5.60;99.90;;;;;;4994687;28;20880;-61
2022/02/23 07:00:50;;;;;;;2.30;1.43;;;5.60;99.90;;;;;;5011196;28;20469;-61
2022/02/23 07:03:16;;;;;;;2.87;1.50;;;5.60;99.90;;;;;;5008114;28;20180;-59
2022/02/23 07:05:42;;;;;;;1.50;1.40;;;5.60;99.90;;;;;;4995295;28;20181;-60
2022/02/23 07:08:09;;;;;;;1.67;1.50;;;5.60;99.90;;;;;;5001301;28;20450;-61
2022/02/23 07:10:36;;;;;;;2.17;1.87;;;5.60;99.90;;;;;;5007310;28;20224;-61
2022/02/23 07:13:06;;;;;;;2.70;2.50;;;5.60;99.90;;;;;;5006276;28;20877;-61
2022/02/23 07:15:32;;;;;;;2.50;2.30;;;5.70;99.90;;;;;;4995950;28;20427;-61
2022/02/23 07:17:58;;;;;;;1.90;1.80;;;5.70;99.90;;;;;;4995374;28;20963;-61
2022/02/23 07:20:24;;;;;;;1.93;1.83;;;5.80;99.90;;;;;;5036278;28;20431;-61
2022/02/23 07:22:50;;;;;;;3.70;2.20;;;5.80;99.90;;;;;;5012742;28;20529;-61
2022/02/23 07:25:17;;;;;;;4.87;2.10;;;5.80;99.90;;;;;;4996817;28;20251;-63
2022/02/23 07:27:43;;;;;;;2.47;2.27;;;5.70;99.90;;;;;;5002634;28;20460;-60
2022/02/23 07:30:11;;;;;;;4.20;3.23;;;5.80;99.90;;;;;;5009708;28;20529;-60
2022/02/23 07:32:37;;;;;;;5.40;3.80;;;5.80;99.90;;;;;;5008789;28;20422;-60
2022/02/23 07:35:05;;;;;;;15.83;7.43;;;5.80;99.90;;;;;;5009480;28;20823;-60
2022/02/23 07:37:33;;;;;;;9.43;5.80;;;5.80;99.90;;;;;;5012547;28;20581;-59
2022/02/23 07:40:07;;;;;;;8.37;5.43;;;5.80;99.90;;;;;;5011082;28;20431;-60
2022/02/23 07:42:33;;;;;;;11.27;6.80;;;5.80;99.90;;;;;;5004489;28;20434;-59
2022/02/23 07:44:59;;;;;;;11.00;5.20;;;5.90;99.90;;;;;;5013181;28;20424;-59
2022/02/23 07:47:25;;;;;;;5.97;3.80;;;5.90;99.90;;;;;;5008875;28;20200;-59
2022/02/23 07:49:50;;;;;;;7.63;4.30;;;6.00;99.90;;;;;;5004987;28;20208;-60
2022/02/23 07:52:17;;;;;;;11.70;4.30;;;6.00;99.90;;;;;;4995859;28;20173;-59
2022/02/23 07:54:43;;;;;;;6.10;3.83;;;6.10;99.90;;;;;;4996644;28;20703;-60
2022/02/23 07:57:09;;;;;;;8.33;3.03;;;6.10;99.90;;;;;;4998774;28;20510;-60
2022/02/23 07:59:34;;;;;;;2.87;2.60;;;6.20;99.90;;;;;;5008828;28;20876;-60
2022/02/23 08:02:00;;;;;;;3.30;2.87;;;6.20;99.90;;;;;;5000004;28;20733;-60
2022/02/23 08:04:26;;;;;;;4.77;2.87;;;6.30;99.90;;;;;;4997643;28;20219;-60
2022/02/23 08:06:51;;;;;;;2.77;2.57;;;6.30;99.90;;;;;;4998201;28;20660;-59
2022/02/23 08:09:17;;;;;;;3.90;2.63;;;6.40;99.90;;;;;;4992833;28;20521;-61
2022/02/23 08:11:43;;;;;;;2.57;2.37;;;6.50;99.90;;;;;;4998127;28;20682;-59
2022/02/23 08:14:10;;;;;;;4.27;2.80;;;6.70;99.90;;;;;;5004227;28;20209;-60
2022/02/23 08:19:31;;;;;;;2.80;2.03;;;6.90;99.90;;;;;;5036164;22;20534;-58
2022/02/23 08:21:59;;;;;;;6.17;2.20;;;7.00;99.90;;;;;;5002172;28;20446;-59
2022/02/23 08:24:27;;;;;;;2.53;2.00;;;7.10;99.90;;;;;;5008678;28;20481;-57
2022/02/23 08:26:54;;;;;;;3.63;2.07;;;7.10;99.90;;;;;;5005649;28;20511;-59
2022/02/23 08:29:20;;;;;;;3.50;1.90;;;7.20;99.90;;;;;;5002572;28;20474;-60
2022/02/23 08:31:46;;;;;;;3.50;1.70;;;7.30;99.90;;;;;;5008327;28;20939;-59
2022/02/23 08:34:12;;;;;;;4.93;1.40;;;7.30;99.90;;;;;;5006588;28;20430;-58
2022/02/23 08:36:38;;;;;;;1.30;1.23;;;7.20;99.90;;;;;;5006575;28;20648;-57
2022/02/23 08:39:07;;;;;;;2.50;1.40;;;7.10;99.90;;;;;;5011788;28;20698;-56
2022/02/23 08:41:33;;;;;;;2.07;1.80;;;7.00;99.90;;;;;;5008752;28;20248;-57
2022/02/23 08:43:58;;;;;;;2.53;1.70;;;7.00;99.90;;;;;;5008596;28;20456;-58
2022/02/23 08:46:24;;;;;;;2.10;1.83;;;7.10;99.90;;;;;;5006396;28;20480;-58
2022/02/23 08:48:49;;;;;;;10.70;1.90;;;7.20;99.90;;;;;;5015984;28;20209;-59
2022/02/23 08:51:15;;;;;;;2.63;2.00;;;7.20;99.90;;;;;;5004463;28;20180;-59
2022/02/23 08:53:41;;;;;;;2.87;1.93;;;7.30;99.90;;;;;;5006025;28;20725;-59
2022/02/23 08:56:06;;;;;;;3.80;2.27;;;7.30;99.90;;;;;;5007773;28;20177;-59
2022/02/23 08:58:32;;;;;;;4.37;3.13;;;7.40;99.90;;;;;;5008389;28;20224;-59
2022/02/23 09:00:58;;;;;;;6.90;3.50;;;7.40;99.90;;;;;;5007644;28;20187;-58
2022/02/23 09:03:23;;;;;;;3.63;3.20;;;7.50;99.90;;;;;;5003252;28;20196;-59
2022/02/23 09:05:49;;;;;;;2.80;2.40;;;7.50;99.90;;;;;;5008863;28;20183;-58
2022/02/23 09:08:15;;;;;;;3.23;2.50;;;7.60;99.90;;;;;;5011953;28;20596;-59
2022/02/23 09:10:41;;;;;;;3.23;2.33;;;7.60;99.90;;;;;;5005743;28;20534;-59
2022/02/23 09:13:08;;;;;;;5.53;3.50;;;7.70;99.90;;;;;;5007839;28;20192;-58
2022/02/23 09:15:34;;;;;;;6.07;3.57;;;7.60;99.90;;;;;;5006544;28;20189;-59
2022/02/23 09:18:01;;;;;;;6.33;4.10;;;7.60;99.90;;;;;;5006902;28;20770;-57
2022/02/23 09:20:28;;;;;;;8.10;5.30;;;7.40;99.90;;;;;;5006889;28;20846;-58
2022/02/23 09:22:54;;;;;;;8.70;5.07;;;7.40;99.90;;;;;;5012495;28;20428;-58
2022/02/23 09:25:21;;;;;;;6.47;4.17;;;7.40;99.90;;;;;;5002692;28;20850;-55
2022/02/23 09:27:47;;;;;;;9.20;4.80;;;7.30;99.90;;;;;;5006032;28;20950;-59
2022/02/23 09:30:14;;;;;;;6.43;3.53;;;7.30;99.90;;;;;;5005712;28;20467;-60
2022/02/23 09:32:41;;;;;;;6.87;3.60;;;7.30;99.90;;;;;;5007803;28;20787;-59
2022/02/23 09:35:09;;;;;;;4.47;3.07;;;7.30;99.90;;;;;;5004909;28;20550;-59
2022/02/23 09:37:35;;;;;;;1.97;1.83;;;7.40;99.90;;;;;;5007740;28;20435;-58
2022/02/23 09:40:05;;;;;;;4.00;1.77;;;7.40;99.90;;;;;;5005866;28;20451;-60
2022/02/23 09:42:31;;;;;;;2.03;1.87;;;7.40;99.90;;;;;;5008367;28;20455;-58
2022/02/23 09:44:59;;;;;;;2.13;1.93;;;7.40;99.90;;;;;;5004467;28;20478;-56
2022/02/23 09:47:26;;;;;;;2.90;2.00;;;7.40;99.90;;;;;;5001178;28;20423;-59
2022/02/23 09:49:52;;;;;;;2.27;2.07;;;7.50;99.90;;;;;;5004837;28;20475;-59
2022/02/23 09:52:23;;;;;;;2.57;1.63;;;7.60;99.90;;;;;;5006110;28;20455;-58
2022/02/23 09:54:49;;;;;;;5.87;1.90;;;7.70;99.90;;;;;;5000564;28;20478;-58
2022/02/23 09:57:16;;;;;;;1.70;1.60;;;7.80;99.90;;;;;;5002860;28;20431;-58
2022/02/23 09:59:42;;;;;;;1.87;1.73;;;7.90;99.90;;;;;;5010693;28;20278;-58
2022/02/23 10:02:11;;;;;;;2.53;2.10;;;8.00;99.90;;;;;;5006642;28;20920;-60
2022/02/23 10:04:37;;;;;;;2.17;1.97;;;8.10;99.90;;;;;;5006566;28;20672;-59
2022/02/23 10:07:06;;;;;;;2.80;1.90;;;8.20;99.90;;;;;;5006194;28;20423;-57
2022/02/23 10:09:44;;;;;;;2.83;2.37;;;8.50;99.90;;;;;;5008545;28;20455;-62
2022/02/23 10:12:21;;;;;;;2.30;2.10;;;8.80;99.90;;;;;;5007386;28;20415;-58
2022/02/23 10:14:47;;;;;;;4.33;2.20;;;9.10;99.90;;;;;;5005479;28;20935;-59
2022/02/23 10:17:14;;;;;;;2.47;2.33;;;9.30;99.90;;;;;;5006054;28;20427;-61
2022/02/23 10:19:55;;;;;;;4.80;2.80;;;9.50;99.90;;;;;;5007763;28;20455;-59
2022/02/23 10:22:22;;;;;;;2.60;2.40;;;9.60;99.90;;;;;;5006118;28;20545;-58
2022/02/23 10:24:48;;;;;;;3.27;2.97;;;9.80;99.90;;;;;;5009488;28;20430;-61
2022/02/23 10:27:15;;;;;;;4.03;3.20;;;9.70;99.90;;;;;;5013409;28;20445;-57
2022/02/23 10:29:54;;;;;;;5.67;3.57;;;9.50;99.90;;;;;;5005444;28;20885;-58
2022/02/23 10:32:22;;;;;;;4.20;3.80;;;9.20;99.90;;;;;;5016547;28;20430;-60
2022/02/23 10:34:49;;;;;;;3.90;3.50;;;9.00;99.90;;;;;;5016796;28;20419;-58
2022/02/23 10:37:18;;;;;;;3.50;3.20;;;8.80;99.90;;;;;;5007355;28;20477;-59
2022/02/23 10:39:57;;;;;;;2.97;2.77;;;8.80;99.90;;;;;;5006285;28;20549;-58
2022/02/23 10:42:26;;;;;;;3.03;2.83;;;8.80;99.90;;;;;;5006264;28;20497;-58
2022/02/23 10:44:54;;;;;;;3.87;3.40;;;8.70;99.90;;;;;;5009325;28;20435;-59
2022/02/23 10:47:29;;;;;;;5.03;3.60;;;8.60;99.90;;;;;;5019060;28;20580;-58
2022/02/23 10:50:15;;;;;;;5.70;3.20;;;8.50;99.90;;;;;;4999129;28;20556;-59
2022/02/23 10:52:43;;;;;;;3.47;3.13;;;8.40;99.90;;;;;;5005543;28;20514;-58
2022/02/23 10:55:22;;;;;;;3.10;2.90;;;8.40;99.90;;;;;;5005242;28;20507;-59
2022/02/23 10:57:49;;;;;;;3.33;3.03;;;8.40;99.90;;;;;;4995242;28;20518;-59
2022/02/23 11:00:29;;;;;;;3.30;3.00;;;8.40;99.90;;;;;;5002138;28;20956;-59
2022/02/23 11:02:55;;;;;;;6.43;3.20;;;8.40;99.90;;;;;;5006048;28;20938;-59
2022/02/23 11:05:25;;;;;;;4.93;3.10;;;8.40;99.90;;;;;;5007290;28;20438;-59
2022/02/23 11:07:52;;;;;;;3.27;2.97;;;8.50;99.90;;;;;;5000005;28;20440;-59
2022/02/23 11:10:18;;;;;;;3.03;2.83;;;8.50;99.90;;;;;;5004414;28;20498;-59
2022/02/23 11:12:47;;;;;;;5.00;2.90;;;8.60;99.90;;;;;;5005404;28;20518;-58
2022/02/23 11:15:19;;;;;;;9.00;3.30;;;8.90;99.90;;;;;;5004901;28;20492;-59
2022/02/23 11:17:47;;;;;;;4.93;3.30;;;9.40;99.90;;;;;;5004983;28;20431;-59
2022/02/23 11:20:18;;;;;;;4.00;3.07;;;10.00;99.90;;;;;;5015600;28;20517;-59
2022/02/23 11:22:56;;;;;;;4.23;2.80;;;10.40;99.90;;;;;;5006571;28;20427;-57
2022/02/23 11:25:23;;;;;;;3.20;2.57;;;10.60;95.80;;;;;;5008843;28;20453;-58
2022/02/23 11:27:54;;;;;;;3.83;2.87;;;10.60;92.10;;;;;;5009598;28;20446;-57
2022/02/23 11:30:25;;;;;;;6.10;2.60;;;10.50;92.70;;;;;;5009897;28;20463;-58
2022/02/23 11:32:51;;;;;;;7.73;2.60;;;10.50;93.10;;;;;;5009688;28;20848;-60
2022/02/23 11:35:38;;;;;;;3.60;2.80;;;10.50;92.00;;;;;;5008484;28;20427;-60
2022/02/23 11:38:04;;;;;;;2.33;2.13;;;10.60;92.70;;;;;;5004015;28;20203;-58
2022/02/23 11:40:29;;;;;;;1.97;1.80;;;11.20;92.80;;;;;;5012740;28;20450;-57
2022/02/23 11:42:55;;;;;;;2.23;2.00;;;12.20;76.70;;;;;;5018446;28;20204;-58
2022/02/23 11:45:21;;;;;;;4.47;2.10;;;13.10;70.30;;;;;;5008014;28;20196;-59
2022/02/23 11:47:48;;;;;;;2.80;2.30;;;14.20;68.20;;;;;;5008770;28;20181;-57
2022/02/23 11:50:39;;;;;;;1.87;1.77;;;15.20;60.40;;;;;;5013906;28;20466;-57
2022/02/23 11:56:48;;;;;;;1.90;1.73;;;15.00;53.90;;;;;;5005014;28;20494;-57
2022/02/23 11:59:51;;;;;;;2.10;1.90;;;14.50;54.50;;;;;;5005253;28;20469;-58
2022/02/23 12:02:17;;;;;;;1.90;1.67;;;13.80;52.80;;;;;;5001563;28;20931;-56
2022/02/23 12:04:47;;;;;;;3.17;1.77;;;13.20;54.20;;;;;;5005728;28;20479;-57
2022/02/23 12:07:14;;;;;;;2.40;2.03;;;12.60;55.60;;;;;;5006103;28;20234;-57
2022/02/23 12:09:45;;;;;;;4.20;2.77;;;12.30;58.00;;;;;;5001520;28;20482;-58
2022/02/23 12:12:47;;;;;;;4.40;2.53;;;12.10;59.50;;;;;;5004372;28;20419;-58
2022/02/23 12:15:33;;;;;;;3.50;2.50;;;12.30;58.20;;;;;;5004730;28;20430;-58
2022/02/23 12:18:07;;;;;;;2.67;2.27;;;13.10;59.40;;;;;;5002524;28;20570;-59
2022/02/23 12:20:35;;;;;;;4.00;2.10;;;14.10;58.00;;;;;;5013310;28;20434;-59
2022/02/23 12:23:03;;;;;;;2.50;2.03;;;14.90;56.10;;;;;;5002157;28;20858;-58
2022/02/23 12:25:48;;;;;;;2.70;1.80;;;16.00;50.50;;;;;;5001575;28;20889;-59
2022/02/23 12:28:15;;;;;;;2.50;2.07;;;17.00;48.80;;;;;;5008421;28;20610;-60
2022/02/23 12:30:46;;;;;;;3.40;1.77;;;17.80;46.80;;;;;;5020862;28;20463;-59
2022/02/23 12:33:16;;;;;;;2.63;2.03;;;18.70;46.70;;;;;;5010173;28;20512;-60
2022/02/23 12:35:47;;;;;;;4.90;1.90;;;19.50;45.00;;;;;;5002837;28;20454;-59
2022/02/23 12:38:14;;;;;;;2.00;1.90;;;20.20;44.40;;;;;;4997958;28;20459;-60
2022/02/23 12:40:42;;;;;;;1.70;1.60;;;20.50;42.10;;;;;;4991893;28;20424;-59
2022/02/23 12:43:09;;;;;;;5.10;1.93;;;20.00;40.70;;;;;;4991671;28;20833;-58
2022/02/23 12:46:01;;;;;;;1.83;1.70;;;19.00;40.10;;;;;;5008784;28;20793;-58
2022/02/23 12:48:33;;;;;;;4.60;2.53;;;17.70;42.80;;;;;;5005714;28;20456;-58
2022/02/23 12:51:10;;;;;;;6.93;2.30;;;16.70;45.00;;;;;;5011165;28;20446;-57
2022/02/23 12:53:44;;;;;;;3.17;2.43;;;15.70;46.90;;;;;;5006003;28;20474;-56
2022/02/23 12:56:22;;;;;;;3.87;2.40;;;14.90;48.20;;;;;;5007106;28;20436;-56
2022/02/23 12:58:50;;;;;;;11.60;3.03;;;14.00;49.00;;;;;;5011768;28;20511;-56
2022/02/23 13:01:43;;;;;;;3.40;2.77;;;13.40;50.30;;;;;;5002893;28;20825;-58
2022/02/23 13:04:11;;;;;;;3.90;2.80;;;12.80;51.40;;;;;;5003477;28;20967;-58